sensor_id;sensor_type;location;lat;lon;timestamp;temperature;humidity
8643;DHT22;4359;49.358;11.256;2023-03-14T00:01:33;8.30;99.90
8643;DHT22;4359;49.358;11.256;2023-03-14T00:03:58;8.30;99.90
8643;DHT22;4359;49.358;11.256;2023-03-14T00:06:24;8.30;99.90
8643;DHT22;4359;49.358;11.256;2023-03-14T00:08:50;8.20;99.90
8643;DHT22;4359;49.358;11.256;2023-03-14T00:11:18;8.20;99.90
8643;DHT22;4359;49.358;11.256;2023-03-14T00:13:46;8.20;99.90
8643;DHT22;4359;49.358;11.256;2023-03-14T00:16:12;8.20;99.90
8643;DHT22;4359;49.358;11.256;2023-03-14T00:18:37;8.20;99.90
8643;DHT22;4359;49.358;11.256;2023-03-14T00:21:04;8.20;99.90
8643;DHT22;4359;49.358;11.256;2023-03-14T00:23:30;8.20;99.90
8643;DHT22;4359;49.358;11.256;2023-03-14T00:25:59;8.20;99.90
8643;DHT22;4359;49.358;11.256;2023-03-14T00:28:25;8.20;99.90
8643;DHT22;4359;49.358;11.256;2023-03-14T00:30:51;8.20;99.90
8643;DHT22;4359;49.358;11.256;2023-03-14T00:33:16;8.20;99.90
8643;DHT22;4359;49.358;11.256;2023-03-14T00:35:42;8.20;99.90
8643;DHT22;4359;49.358;11.256;2023-03-14T00:38:07;8.20;99.90
8643;DHT22;4359;49.358;11.256;2023-03-14T00:40:33;8.30;99.90
8643;DHT22;4359;49.358;11.256;2023-03-14T00:42:58;8.30;99.90
8643;DHT22;4359;49.358;11.256;2023-03-14T00:45:24;8.30;99.90
8643;DHT22;4359;49.358;11.256;2023-03-14T00:47:49;8.30;99.90
8643;DHT22;4359;49.358;11.256;2023-03-14T00:50:15;8.30;99.90
8643;DHT22;4359;49.358;11.256;2023-03-14T00:52:40;8.30;99.90
8643;DHT22;4359;49.358;11.256;2023-03-14T00:55:06;8.30;99.90
8643;DHT22;4359;49.358;11.256;2023-03-14T00:57:31;8.40;99.90
8643;DHT22;4359;49.358;11.256;2023-03-14T00:59:57;8.40;99.90
8643;DHT22;4359;49.358;11.256;2023-03-14T01:02:24;8.40;99.90
8643;DHT22;4359;49.358;11.256;2023-03-14T01:04:49;8.30;99.90
8643;DHT22;4359;49.358;11.256;2023-03-14T01:07:15;8.40;99.90
8643;DHT22;4359;49.358;11.256;2023-03-14T01:09:41;8.40;99.90
8643;DHT22;4359;49.358;11.256;2023-03-14T01:12:07;8.40;99.90
8643;DHT22;4359;49.358;11.256;2023-03-14T01:14:32;8.30;99.90
8643;DHT22;4359;49.358;11.256;2023-03-14T01:16:58;8.30;99.90
8643;DHT22;4359;49.358;11.256;2023-03-14T01:19:26;8.30;99.90
8643;DHT22;4359;49.358;11.256;2023-03-14T01:21:52;8.30;99.90
8643;DHT22;4359;49.358;11.256;2023-03-14T01:24:18;8.30;99.90
8643;DHT22;4359;49.358;11.256;2023-03-14T01:26:43;8.30;99.90
8643;DHT22;4359;49.358;11.256;2023-03-14T01:29:09;8.40;99.90
8643;DHT22;4359;49.358;11.256;2023-03-14T01:31:34;8.40;99.90
8643;DHT22;4359;49.358;11.256;2023-03-14T01:34:00;8.30;99.90
8643;DHT22;4359;49.358;11.256;2023-03-14T01:36:25;8.30;99.90
8643;DHT22;4359;49.358;11.256;2023-03-14T01:38:51;8.30;99.90
8643;DHT22;4359;49.358;11.256;2023-03-14T01:41:18;8.20;99.90
8643;DHT22;4359;49.358;11.256;2023-03-14T01:43:44;8.20;99.90
8643;DHT22;4359;49.358;11.256;2023-03-14T01:46:20;8.20;99.90
8643;DHT22;4359;49.358;11.256;2023-03-14T01:51:24;8.20;99.90
8643;DHT22;4359;49.358;11.256;2023-03-14T01:53:50;8.20;99.90
8643;DHT22;4359;49.358;11.256;2023-03-14T01:56:16;8.20;99.90
8643;DHT22;4359;49.358;11.256;2023-03-14T01:58:43;8.20;99.90
8643;DHT22;4359;49.358;11.256;2023-03-14T02:01:10;8.20;99.90
8643;DHT22;4359;49.358;11.256;2023-03-14T02:03:38;8.20;99.90
8643;DHT22;4359;49.358;11.256;2023-03-14T02:06:08;8.20;99.90
8643;DHT22;4359;49.358;11.256;2023-03-14T02:08:34;8.20;99.90
8643;DHT22;4359;49.358;11.256;2023-03-14T02:11:00;8.10;99.90
8643;DHT22;4359;49.358;11.256;2023-03-14T02:13:26;8.10;99.90
8643;DHT22;4359;49.358;11.256;2023-03-14T02:15:51;8.10;99.90
8643;DHT22;4359;49.358;11.256;2023-03-14T02:18:17;8.10;99.90
8643;DHT22;4359;49.358;11.256;2023-03-14T02:20:53;8.10;99.90
8643;DHT22;4359;49.358;11.256;2023-03-14T02:23:31;8.10;99.90
8643;DHT22;4359;49.358;11.256;2023-03-14T02:25:59;8.10;99.90
8643;DHT22;4359;49.358;11.256;2023-03-14T02:28:26;8.10;99.90
8643;DHT22;4359;49.358;11.256;2023-03-14T02:30:51;8.10;99.90
8643;DHT22;4359;49.358;11.256;2023-03-14T02:33:18;8.10;99.90
8643;DHT22;4359;49.358;11.256;2023-03-14T02:35:49;8.10;99.90
8643;DHT22;4359;49.358;11.256;2023-03-14T02:40:59;8.00;99.90
8643;DHT22;4359;49.358;11.256;2023-03-14T02:43:25;8.00;99.90
8643;DHT22;4359;49.358;11.256;2023-03-14T02:45:50;8.10;99.90
8643;DHT22;4359;49.358;11.256;2023-03-14T02:48:35;8.10;99.90
8643;DHT22;4359;49.358;11.256;2023-03-14T02:51:03;8.10;99.90
8643;DHT22;4359;49.358;11.256;2023-03-14T02:53:33;8.00;99.90
8643;DHT22;4359;49.358;11.256;2023-03-14T02:55:59;8.00;99.90
8643;DHT22;4359;49.358;11.256;2023-03-14T02:58:25;8.00;99.90
8643;DHT22;4359;49.358;11.256;2023-03-14T03:00:51;8.00;99.90
8643;DHT22;4359;49.358;11.256;2023-03-14T03:03:16;7.90;99.90
8643;DHT22;4359;49.358;11.256;2023-03-14T03:05:42;7.90;99.90
8643;DHT22;4359;49.358;11.256;2023-03-14T03:08:09;7.90;99.90
8643;DHT22;4359;49.358;11.256;2023-03-14T03:10:35;7.90;99.90
8643;DHT22;4359;49.358;11.256;2023-03-14T03:13:00;7.90;99.90
8643;DHT22;4359;49.358;11.256;2023-03-14T03:15:26;7.90;99.90
8643;DHT22;4359;49.358;11.256;2023-03-14T03:17:51;7.90;99.90
8643;DHT22;4359;49.358;11.256;2023-03-14T03:20:17;7.80;99.90
8643;DHT22;4359;49.358;11.256;2023-03-14T03:22:43;7.80;99.90
8643;DHT22;4359;49.358;11.256;2023-03-14T03:25:08;7.70;99.90
8643;DHT22;4359;49.358;11.256;2023-03-14T03:27:34;7.70;99.90
8643;DHT22;4359;49.358;11.256;2023-03-14T03:30:00;7.70;99.90
8643;DHT22;4359;49.358;11.256;2023-03-14T03:32:26;7.70;99.90
8643;DHT22;4359;49.358;11.256;2023-03-14T03:34:52;7.70;99.90
8643;DHT22;4359;49.358;11.256;2023-03-14T03:37:17;7.70;99.90
8643;DHT22;4359;49.358;11.256;2023-03-14T03:39:43;7.70;99.90
8643;DHT22;4359;49.358;11.256;2023-03-14T03:42:09;7.70;99.90
8643;DHT22;4359;49.358;11.256;2023-03-14T03:44:35;7.70;99.90
8643;DHT22;4359;49.358;11.256;2023-03-14T03:47:00;7.70;99.90
8643;DHT22;4359;49.358;11.256;2023-03-14T03:49:29;7.70;99.90
8643;DHT22;4359;49.358;11.256;2023-03-14T03:51:55;7.60;99.90
8643;DHT22;4359;49.358;11.256;2023-03-14T03:54:21;7.60;99.90
8643;DHT22;4359;49.358;11.256;2023-03-14T03:56:46;7.60;99.90
8643;DHT22;4359;49.358;11.256;2023-03-14T03:59:12;7.60;99.90
8643;DHT22;4359;49.358;11.256;2023-03-14T04:01:37;7.50;99.90
8643;DHT22;4359;49.358;11.256;2023-03-14T04:04:03;7.60;99.90
8643;DHT22;4359;49.358;11.256;2023-03-14T04:06:28;7.60;99.90
8643;DHT22;4359;49.358;11.256;2023-03-14T04:08:54;7.60;99.90
8643;DHT22;4359;49.358;11.256;2023-03-14T04:11:19;7.60;99.90
8643;DHT22;4359;49.358;11.256;2023-03-14T04:13:45;7.50;99.90
8643;DHT22;4359;49.358;11.256;2023-03-14T04:16:13;7.50;99.90
8643;DHT22;4359;49.358;11.256;2023-03-14T04:18:39;7.50;99.90
8643;DHT22;4359;49.358;11.256;2023-03-14T04:21:05;7.60;99.90
8643;DHT22;4359;49.358;11.256;2023-03-14T04:23:31;7.60;99.90
8643;DHT22;4359;49.358;11.256;2023-03-14T04:25:56;7.50;99.90
8643;DHT22;4359;49.358;11.256;2023-03-14T04:28:22;7.50;99.90
8643;DHT22;4359;49.358;11.256;2023-03-14T04:30:47;7.40;99.90
8643;DHT22;4359;49.358;11.256;2023-03-14T04:33:13;7.40;99.90
8643;DHT22;4359;49.358;11.256;2023-03-14T04:35:45;7.40;99.90
8643;DHT22;4359;49.358;11.256;2023-03-14T04:38:11;7.40;99.90
8643;DHT22;4359;49.358;11.256;2023-03-14T04:40:37;7.30;99.90
8643;DHT22;4359;49.358;11.256;2023-03-14T04:43:03;7.30;99.90
8643;DHT22;4359;49.358;11.256;2023-03-14T04:45:28;7.40;99.90
8643;DHT22;4359;49.358;11.256;2023-03-14T04:47:54;7.40;99.90
8643;DHT22;4359;49.358;11.256;2023-03-14T04:50:19;7.40;99.90
8643;DHT22;4359;49.358;11.256;2023-03-14T04:52:45;7.40;99.90
8643;DHT22;4359;49.358;11.256;2023-03-14T04:55:10;7.40;99.90
8643;DHT22;4359;49.358;11.256;2023-03-14T04:57:36;7.50;99.90
8643;DHT22;4359;49.358;11.256;2023-03-14T05:00:02;7.50;99.90
8643;DHT22;4359;49.358;11.256;2023-03-14T05:02:31;7.50;99.90
8643;DHT22;4359;49.358;11.256;2023-03-14T05:04:57;7.50;99.90
8643;DHT22;4359;49.358;11.256;2023-03-14T05:07:22;7.50;99.90
8643;DHT22;4359;49.358;11.256;2023-03-14T05:09:48;7.40;99.90
8643;DHT22;4359;49.358;11.256;2023-03-14T05:12:13;7.40;99.90
8643;DHT22;4359;49.358;11.256;2023-03-14T05:14:39;7.40;99.90
8643;DHT22;4359;49.358;11.256;2023-03-14T05:17:04;7.30;99.90
8643;DHT22;4359;49.358;11.256;2023-03-14T05:19:30;7.30;99.90
8643;DHT22;4359;49.358;11.256;2023-03-14T05:21:56;7.30;99.90
8643;DHT22;4359;49.358;11.256;2023-03-14T05:24:22;7.20;99.90
8643;DHT22;4359;49.358;11.256;2023-03-14T05:26:47;7.20;99.90
8643;DHT22;4359;49.358;11.256;2023-03-14T05:29:13;7.20;99.90
8643;DHT22;4359;49.358;11.256;2023-03-14T05:31:38;7.10;99.90
8643;DHT22;4359;49.358;11.256;2023-03-14T05:34:04;7.20;99.90
8643;DHT22;4359;49.358;11.256;2023-03-14T05:36:29;7.20;99.90
8643;DHT22;4359;49.358;11.256;2023-03-14T05:38:55;7.20;99.90
8643;DHT22;4359;49.358;11.256;2023-03-14T05:41:20;7.20;99.90
8643;DHT22;4359;49.358;11.256;2023-03-14T05:43:46;7.20;99.90
8643;DHT22;4359;49.358;11.256;2023-03-14T05:46:11;7.20;99.90
8643;DHT22;4359;49.358;11.256;2023-03-14T05:48:37;7.30;99.90
8643;DHT22;4359;49.358;11.256;2023-03-14T05:51:03;7.30;99.90
8643;DHT22;4359;49.358;11.256;2023-03-14T05:53:28;7.40;99.90
8643;DHT22;4359;49.358;11.256;2023-03-14T05:55:54;7.30;99.90
8643;DHT22;4359;49.358;11.256;2023-03-14T05:58:20;7.20;99.90
8643;DHT22;4359;49.358;11.256;2023-03-14T06:00:46;7.20;99.90
8643;DHT22;4359;49.358;11.256;2023-03-14T06:03:11;7.30;99.90
8643;DHT22;4359;49.358;11.256;2023-03-14T06:05:37;7.30;99.90
8643;DHT22;4359;49.358;11.256;2023-03-14T06:08:02;7.30;99.90
8643;DHT22;4359;49.358;11.256;2023-03-14T06:10:28;7.40;99.90
8643;DHT22;4359;49.358;11.256;2023-03-14T06:12:53;7.40;99.90
8643;DHT22;4359;49.358;11.256;2023-03-14T06:15:19;7.40;99.90
8643;DHT22;4359;49.358;11.256;2023-03-14T06:17:44;7.40;99.90
8643;DHT22;4359;49.358;11.256;2023-03-14T06:20:10;7.50;99.90
8643;DHT22;4359;49.358;11.256;2023-03-14T06:22:36;7.50;99.90
8643;DHT22;4359;49.358;11.256;2023-03-14T06:25:02;7.50;99.90
8643;DHT22;4359;49.358;11.256;2023-03-14T06:27:28;7.60;99.90
8643;DHT22;4359;49.358;11.256;2023-03-14T06:29:54;7.50;99.90
8643;DHT22;4359;49.358;11.256;2023-03-14T06:32:19;7.60;99.90
8643;DHT22;4359;49.358;11.256;2023-03-14T06:34:45;7.70;99.90
8643;DHT22;4359;49.358;11.256;2023-03-14T06:37:11;7.70;99.90
8643;DHT22;4359;49.358;11.256;2023-03-14T06:39:36;7.70;99.90
8643;DHT22;4359;49.358;11.256;2023-03-14T06:42:03;7.70;99.90
8643;DHT22;4359;49.358;11.256;2023-03-14T06:44:29;7.80;99.90
8643;DHT22;4359;49.358;11.256;2023-03-14T06:46:55;7.80;99.90
8643;DHT22;4359;49.358;11.256;2023-03-14T06:49:20;7.80;99.90
8643;DHT22;4359;49.358;11.256;2023-03-14T06:51:46;7.90;99.90
8643;DHT22;4359;49.358;11.256;2023-03-14T06:54:11;8.00;99.90
8643;DHT22;4359;49.358;11.256;2023-03-14T06:56:37;8.00;99.90
8643;DHT22;4359;49.358;11.256;2023-03-14T06:59:03;8.00;99.90
8643;DHT22;4359;49.358;11.256;2023-03-14T07:01:29;8.10;99.90
8643;DHT22;4359;49.358;11.256;2023-03-14T07:03:55;8.10;99.90
8643;DHT22;4359;49.358;11.256;2023-03-14T07:06:20;8.20;99.90
8643;DHT22;4359;49.358;11.256;2023-03-14T07:08:46;8.30;99.90
8643;DHT22;4359;49.358;11.256;2023-03-14T07:11:12;8.30;99.90
8643;DHT22;4359;49.358;11.256;2023-03-14T07:13:38;8.40;99.90
8643;DHT22;4359;49.358;11.256;2023-03-14T07:16:03;8.40;99.90
8643;DHT22;4359;49.358;11.256;2023-03-14T07:18:29;8.40;99.90
8643;DHT22;4359;49.358;11.256;2023-03-14T07:20:54;8.60;99.90
8643;DHT22;4359;49.358;11.256;2023-03-14T07:23:20;8.70;99.90
8643;DHT22;4359;49.358;11.256;2023-03-14T07:25:45;8.80;99.90
8643;DHT22;4359;49.358;11.256;2023-03-14T07:28:11;8.80;99.90
8643;DHT22;4359;49.358;11.256;2023-03-14T07:30:36;8.80;99.90
8643;DHT22;4359;49.358;11.256;2023-03-14T07:33:02;8.90;99.90
8643;DHT22;4359;49.358;11.256;2023-03-14T07:35:27;9.00;99.90
8643;DHT22;4359;49.358;11.256;2023-03-14T07:37:53;9.10;99.90
8643;DHT22;4359;49.358;11.256;2023-03-14T07:40:19;9.10;99.90
8643;DHT22;4359;49.358;11.256;2023-03-14T07:42:44;9.10;99.90
8643;DHT22;4359;49.358;11.256;2023-03-14T07:45:10;9.00;99.90
8643;DHT22;4359;49.358;11.256;2023-03-14T07:47:36;9.00;99.90
8643;DHT22;4359;49.358;11.256;2023-03-14T07:50:02;9.00;99.90
8643;DHT22;4359;49.358;11.256;2023-03-14T07:52:28;8.90;99.90
8643;DHT22;4359;49.358;11.256;2023-03-14T07:54:53;8.90;99.90
8643;DHT22;4359;49.358;11.256;2023-03-14T07:57:19;8.90;99.90
8643;DHT22;4359;49.358;11.256;2023-03-14T07:59:44;8.90;99.90
8643;DHT22;4359;49.358;11.256;2023-03-14T08:02:10;8.90;99.90
8643;DHT22;4359;49.358;11.256;2023-03-14T08:04:37;8.90;99.90
8643;DHT22;4359;49.358;11.256;2023-03-14T08:07:03;9.00;99.90
8643;DHT22;4359;49.358;11.256;2023-03-14T08:09:29;9.00;99.90
8643;DHT22;4359;49.358;11.256;2023-03-14T08:11:54;9.00;99.90
8643;DHT22;4359;49.358;11.256;2023-03-14T08:14:20;9.10;99.90
8643;DHT22;4359;49.358;11.256;2023-03-14T08:16:46;9.20;99.90
8643;DHT22;4359;49.358;11.256;2023-03-14T08:19:11;9.40;99.90
8643;DHT22;4359;49.358;11.256;2023-03-14T08:21:37;9.50;99.90
8643;DHT22;4359;49.358;11.256;2023-03-14T08:24:02;9.70;99.90
8643;DHT22;4359;49.358;11.256;2023-03-14T08:26:28;9.90;99.90
8643;DHT22;4359;49.358;11.256;2023-03-14T08:28:53;10.00;99.90
8643;DHT22;4359;49.358;11.256;2023-03-14T08:31:19;10.10;99.90
8643;DHT22;4359;49.358;11.256;2023-03-14T08:33:44;10.30;99.90
8643;DHT22;4359;49.358;11.256;2023-03-14T08:36:10;10.50;99.90
8643;DHT22;4359;49.358;11.256;2023-03-14T08:38:35;10.60;99.90
8643;DHT22;4359;49.358;11.256;2023-03-14T08:41:02;10.80;99.90
8643;DHT22;4359;49.358;11.256;2023-03-14T08:43:28;11.00;99.90
8643;DHT22;4359;49.358;11.256;2023-03-14T08:45:53;11.20;99.90
8643;DHT22;4359;49.358;11.256;2023-03-14T08:48:22;11.40;99.90
8643;DHT22;4359;49.358;11.256;2023-03-14T08:50:47;11.50;99.90
8643;DHT22;4359;49.358;11.256;2023-03-14T08:53:13;11.80;99.90
8643;DHT22;4359;49.358;11.256;2023-03-14T08:55:38;11.70;99.90
8643;DHT22;4359;49.358;11.256;2023-03-14T08:58:04;11.70;99.90
8643;DHT22;4359;49.358;11.256;2023-03-14T09:00:30;11.70;99.90
8643;DHT22;4359;49.358;11.256;2023-03-14T09:02:55;12.10;99.90
8643;DHT22;4359;49.358;11.256;2023-03-14T09:05:21;12.50;99.90
8643;DHT22;4359;49.358;11.256;2023-03-14T09:07:46;12.70;99.90
8643;DHT22;4359;49.358;11.256;2023-03-14T09:10:12;12.50;99.90
8643;DHT22;4359;49.358;11.256;2023-03-14T09:12:37;12.30;99.90
8643;DHT22;4359;49.358;11.256;2023-03-14T09:15:03;12.20;99.90
8643;DHT22;4359;49.358;11.256;2023-03-14T09:17:29;12.10;99.90
8643;DHT22;4359;49.358;11.256;2023-03-14T09:19:54;12.10;99.90
8643;DHT22;4359;49.358;11.256;2023-03-14T09:22:20;12.10;99.90
8643;DHT22;4359;49.358;11.256;2023-03-14T09:24:46;12.10;99.90
8643;DHT22;4359;49.358;11.256;2023-03-14T09:27:12;12.10;99.90
8643;DHT22;4359;49.358;11.256;2023-03-14T09:29:37;11.90;99.90
8643;DHT22;4359;49.358;11.256;2023-03-14T09:32:03;12.00;99.90
8643;DHT22;4359;49.358;11.256;2023-03-14T09:34:28;12.10;99.90
8643;DHT22;4359;49.358;11.256;2023-03-14T09:36:54;12.20;99.90
8643;DHT22;4359;49.358;11.256;2023-03-14T09:39:20;12.30;99.90
8643;DHT22;4359;49.358;11.256;2023-03-14T09:41:54;12.30;99.90
8643;DHT22;4359;49.358;11.256;2023-03-14T09:44:24;12.80;99.90
8643;DHT22;4359;49.358;11.256;2023-03-14T09:46:51;13.30;99.90
8643;DHT22;4359;49.358;11.256;2023-03-14T09:49:21;13.70;99.90
8643;DHT22;4359;49.358;11.256;2023-03-14T09:51:50;13.90;99.90
8643;DHT22;4359;49.358;11.256;2023-03-14T09:56:50;13.50;99.90
8643;DHT22;4359;49.358;11.256;2023-03-14T09:59:16;13.90;99.90
8643;DHT22;4359;49.358;11.256;2023-03-14T10:01:42;14.20;99.90
8643;DHT22;4359;49.358;11.256;2023-03-14T10:04:12;14.20;99.90
8643;DHT22;4359;49.358;11.256;2023-03-14T10:06:39;14.00;99.90
8643;DHT22;4359;49.358;11.256;2023-03-14T10:09:05;13.70;99.90
8643;DHT22;4359;49.358;11.256;2023-03-14T10:11:31;13.20;99.90
8643;DHT22;4359;49.358;11.256;2023-03-14T10:14:09;12.90;99.90
8643;DHT22;4359;49.358;11.256;2023-03-14T10:16:42;12.70;99.90
8643;DHT22;4359;49.358;11.256;2023-03-14T10:19:10;12.50;99.90
8643;DHT22;4359;49.358;11.256;2023-03-14T10:21:37;12.30;99.90
8643;DHT22;4359;49.358;11.256;2023-03-14T10:26:48;12.20;99.90
8643;DHT22;4359;49.358;11.256;2023-03-14T10:29:14;12.10;99.90
8643;DHT22;4359;49.358;11.256;2023-03-14T10:31:52;12.00;99.90
8643;DHT22;4359;49.358;11.256;2023-03-14T10:34:25;12.10;99.90
8643;DHT22;4359;49.358;11.256;2023-03-14T10:36:55;12.20;99.90
8643;DHT22;4359;49.358;11.256;2023-03-14T10:39:22;12.30;99.90
8643;DHT22;4359;49.358;11.256;2023-03-14T10:41:53;12.40;99.90
8643;DHT22;4359;49.358;11.256;2023-03-14T10:44:20;12.60;99.90
8643;DHT22;4359;49.358;11.256;2023-03-14T10:46:46;12.60;99.90
8643;DHT22;4359;49.358;11.256;2023-03-14T10:49:28;12.80;99.90
8643;DHT22;4359;49.358;11.256;2023-03-14T10:51:54;13.00;99.90
8643;DHT22;4359;49.358;11.256;2023-03-14T10:54:21;13.10;99.90
8643;DHT22;4359;49.358;11.256;2023-03-14T10:56:56;13.00;99.90
8643;DHT22;4359;49.358;11.256;2023-03-14T10:59:21;12.90;99.90
8643;DHT22;4359;49.358;11.256;2023-03-14T11:07:14;13.00;99.90
8643;DHT22;4359;49.358;11.256;2023-03-14T11:09:56;13.00;99.90
8643;DHT22;4359;49.358;11.256;2023-03-14T11:15:19;13.20;99.90
8643;DHT22;4359;49.358;11.256;2023-03-14T11:23:13;12.80;99.90
8643;DHT22;4359;49.358;11.256;2023-03-14T11:28:34;12.60;99.90
8643;DHT22;4359;49.358;11.256;2023-03-14T11:33:35;12.60;99.90
8643;DHT22;4359;49.358;11.256;2023-03-14T11:36:08;12.50;99.90
8643;DHT22;4359;49.358;11.256;2023-03-14T11:38:38;12.40;99.90
8643;DHT22;4359;49.358;11.256;2023-03-14T11:41:09;12.00;99.90
8643;DHT22;4359;49.358;11.256;2023-03-14T11:43:35;11.60;99.90
8643;DHT22;4359;49.358;11.256;2023-03-14T11:46:07;11.30;99.90
8643;DHT22;4359;49.358;11.256;2023-03-14T11:51:00;10.90;99.90
8643;DHT22;4359;49.358;11.256;2023-03-14T11:56:02;10.80;99.90
8643;DHT22;4359;49.358;11.256;2023-03-14T11:58:29;10.90;99.90
8643;DHT22;4359;49.358;11.256;2023-03-14T12:00:57;10.80;99.90
8643;DHT22;4359;49.358;11.256;2023-03-14T12:03:29;11.20;99.90
8643;DHT22;4359;49.358;11.256;2023-03-14T12:08:27;12.40;99.90
8643;DHT22;4359;49.358;11.256;2023-03-14T12:10:58;12.50;99.90
8643;DHT22;4359;49.358;11.256;2023-03-14T12:13:27;12.60;99.90
8643;DHT22;4359;49.358;11.256;2023-03-14T12:15:54;12.70;99.90
8643;DHT22;4359;49.358;11.256;2023-03-14T12:20:53;13.00;99.90
8643;DHT22;4359;49.358;11.256;2023-03-14T12:23:19;13.30;99.90
8643;DHT22;4359;49.358;11.256;2023-03-14T12:25:45;13.30;99.90
8643;DHT22;4359;49.358;11.256;2023-03-14T12:28:20;13.20;99.90
8643;DHT22;4359;49.358;11.256;2023-03-14T12:30:46;13.10;99.90
8643;DHT22;4359;49.358;11.256;2023-03-14T12:33:19;12.80;99.90
8643;DHT22;4359;49.358;11.256;2023-03-14T12:38:21;12.40;99.90
8643;DHT22;4359;49.358;11.256;2023-03-14T12:43:38;12.30;99.90
8643;DHT22;4359;49.358;11.256;2023-03-14T12:46:08;12.30;99.90
8643;DHT22;4359;49.358;11.256;2023-03-14T12:48:34;12.60;99.90
8643;DHT22;4359;49.358;11.256;2023-03-14T12:51:03;12.80;99.90
8643;DHT22;4359;49.358;11.256;2023-03-14T12:58:38;12.80;99.90
8643;DHT22;4359;49.358;11.256;2023-03-14T13:01:05;12.90;99.90
8643;DHT22;4359;49.358;11.256;2023-03-14T13:03:36;12.80;99.90
8643;DHT22;4359;49.358;11.256;2023-03-14T13:06:04;12.70;99.90
8643;DHT22;4359;49.358;11.256;2023-03-14T13:08:37;12.70;99.90
8643;DHT22;4359;49.358;11.256;2023-03-14T13:11:07;12.70;99.90
8643;DHT22;4359;49.358;11.256;2023-03-14T13:13:34;12.70;99.90
8643;DHT22;4359;49.358;11.256;2023-03-14T13:16:00;12.50;99.90
8643;DHT22;4359;49.358;11.256;2023-03-14T13:18:36;12.40;99.90
8643;DHT22;4359;49.358;11.256;2023-03-14T13:21:03;12.10;99.90
8643;DHT22;4359;49.358;11.256;2023-03-14T13:23:31;11.80;99.90
8643;DHT22;4359;49.358;11.256;2023-03-14T13:25:57;11.50;99.90
8643;DHT22;4359;49.358;11.256;2023-03-14T13:28:24;10.90;99.90
8643;DHT22;4359;49.358;11.256;2023-03-14T13:30:54;10.60;99.90
8643;DHT22;4359;49.358;11.256;2023-03-14T13:33:21;10.40;99.90
8643;DHT22;4359;49.358;11.256;2023-03-14T13:36:08;10.30;99.90
8643;DHT22;4359;49.358;11.256;2023-03-14T13:38:34;10.30;99.90
8643;DHT22;4359;49.358;11.256;2023-03-14T13:41:00;10.30;99.90
8643;DHT22;4359;49.358;11.256;2023-03-14T13:43:41;10.10;99.90
8643;DHT22;4359;49.358;11.256;2023-03-14T13:46:12;10.10;99.90
8643;DHT22;4359;49.358;11.256;2023-03-14T13:48:46;10.00;99.90
8643;DHT22;4359;49.358;11.256;2023-03-14T13:51:13;9.90;99.90
8643;DHT22;4359;49.358;11.256;2023-03-14T13:53:46;9.80;99.90
8643;DHT22;4359;49.358;11.256;2023-03-14T13:56:12;9.70;99.90
8643;DHT22;4359;49.358;11.256;2023-03-14T13:58:39;9.70;99.90
8643;DHT22;4359;49.358;11.256;2023-03-14T14:01:47;9.50;99.90
8643;DHT22;4359;49.358;11.256;2023-03-14T14:03:55;9.50;99.90
8643;DHT22;4359;49.358;11.256;2023-03-14T14:08:47;9.30;99.90
8643;DHT22;4359;49.358;11.256;2023-03-14T14:11:16;9.20;99.90
8643;DHT22;4359;49.358;11.256;2023-03-14T14:13:44;9.10;99.90
8643;DHT22;4359;49.358;11.256;2023-03-14T14:16:09;9.20;99.90
8643;DHT22;4359;49.358;11.256;2023-03-14T14:18:35;9.10;99.90
8643;DHT22;4359;49.358;11.256;2023-03-14T14:21:01;9.10;99.90
8643;DHT22;4359;49.358;11.256;2023-03-14T14:23:28;9.10;99.90
8643;DHT22;4359;49.358;11.256;2023-03-14T14:25:55;9.00;99.90
8643;DHT22;4359;49.358;11.256;2023-03-14T14:28:27;9.10;99.90
8643;DHT22;4359;49.358;11.256;2023-03-14T14:31:00;9.10;99.90
8643;DHT22;4359;49.358;11.256;2023-03-14T14:33:25;9.10;99.90
8643;DHT22;4359;49.358;11.256;2023-03-14T14:38:16;9.00;99.90
8643;DHT22;4359;49.358;11.256;2023-03-14T14:40:46;8.90;99.90
8643;DHT22;4359;49.358;11.256;2023-03-14T14:43:15;8.90;99.90
8643;DHT22;4359;49.358;11.256;2023-03-14T14:45:42;8.80;99.90
8643;DHT22;4359;49.358;11.256;2023-03-14T14:48:11;8.70;99.90
8643;DHT22;4359;49.358;11.256;2023-03-14T14:53:20;8.70;99.90
8643;DHT22;4359;49.358;11.256;2023-03-14T14:55:49;8.60;99.90
8643;DHT22;4359;49.358;11.256;2023-03-14T14:58:19;8.60;99.90
8643;DHT22;4359;49.358;11.256;2023-03-14T15:01:30;8.50;99.90
8643;DHT22;4359;49.358;11.256;2023-03-14T15:03:36;8.30;99.90
8643;DHT22;4359;49.358;11.256;2023-03-14T15:06:02;8.20;99.90
8643;DHT22;4359;49.358;11.256;2023-03-14T15:08:28;8.20;99.90
8643;DHT22;4359;49.358;11.256;2023-03-14T15:10:54;8.00;99.90
8643;DHT22;4359;49.358;11.256;2023-03-14T15:13:20;7.80;99.90
8643;DHT22;4359;49.358;11.256;2023-03-14T15:15:47;7.60;99.90
8643;DHT22;4359;49.358;11.256;2023-03-14T15:18:14;7.40;99.90
8643;DHT22;4359;49.358;11.256;2023-03-14T15:20:40;7.20;99.90
8643;DHT22;4359;49.358;11.256;2023-03-14T15:23:13;7.20;99.90
8643;DHT22;4359;49.358;11.256;2023-03-14T15:25:39;7.10;99.90
8643;DHT22;4359;49.358;11.256;2023-03-14T15:28:18;6.90;99.90
8643;DHT22;4359;49.358;11.256;2023-03-14T15:30:45;6.80;99.90
8643;DHT22;4359;49.358;11.256;2023-03-14T15:33:10;6.70;99.90
8643;DHT22;4359;49.358;11.256;2023-03-14T15:35:36;6.70;99.90
8643;DHT22;4359;49.358;11.256;2023-03-14T15:38:02;6.70;99.90
8643;DHT22;4359;49.358;11.256;2023-03-14T15:40:28;6.60;99.90
8643;DHT22;4359;49.358;11.256;2023-03-14T15:42:53;6.60;99.90
8643;DHT22;4359;49.358;11.256;2023-03-14T15:45:19;6.60;99.90
8643;DHT22;4359;49.358;11.256;2023-03-14T15:47:45;6.70;99.90
8643;DHT22;4359;49.358;11.256;2023-03-14T15:50:10;6.70;99.90
8643;DHT22;4359;49.358;11.256;2023-03-14T15:52:36;6.80;99.90
8643;DHT22;4359;49.358;11.256;2023-03-14T15:55:01;6.90;99.90
8643;DHT22;4359;49.358;11.256;2023-03-14T15:57:27;7.00;99.90
8643;DHT22;4359;49.358;11.256;2023-03-14T15:59:52;7.10;99.90
8643;DHT22;4359;49.358;11.256;2023-03-14T16:02:18;7.20;99.90
8643;DHT22;4359;49.358;11.256;2023-03-14T16:04:43;7.30;99.90
8643;DHT22;4359;49.358;11.256;2023-03-14T16:07:09;7.30;99.90
8643;DHT22;4359;49.358;11.256;2023-03-14T16:09:35;7.30;99.90
8643;DHT22;4359;49.358;11.256;2023-03-14T16:12:00;7.30;99.90
8643;DHT22;4359;49.358;11.256;2023-03-14T16:14:26;7.30;99.90
8643;DHT22;4359;49.358;11.256;2023-03-14T16:16:52;7.40;99.90
8643;DHT22;4359;49.358;11.256;2023-03-14T16:19:18;7.40;99.90
8643;DHT22;4359;49.358;11.256;2023-03-14T16:21:43;7.30;99.90
8643;DHT22;4359;49.358;11.256;2023-03-14T16:24:09;7.30;99.90
8643;DHT22;4359;49.358;11.256;2023-03-14T16:26:34;7.30;99.90
8643;DHT22;4359;49.358;11.256;2023-03-14T16:29:01;7.30;99.90
8643;DHT22;4359;49.358;11.256;2023-03-14T16:31:27;7.30;99.90
8643;DHT22;4359;49.358;11.256;2023-03-14T16:33:52;7.30;99.90
8643;DHT22;4359;49.358;11.256;2023-03-14T16:36:18;7.30;99.90
8643;DHT22;4359;49.358;11.256;2023-03-14T16:38:44;7.30;99.90
8643;DHT22;4359;49.358;11.256;2023-03-14T16:41:11;7.20;99.90
8643;DHT22;4359;49.358;11.256;2023-03-14T16:43:37;7.20;99.90
8643;DHT22;4359;49.358;11.256;2023-03-14T16:46:04;7.10;99.90
8643;DHT22;4359;49.358;11.256;2023-03-14T16:48:30;7.10;99.90
8643;DHT22;4359;49.358;11.256;2023-03-14T16:50:55;7.10;99.90
8643;DHT22;4359;49.358;11.256;2023-03-14T16:53:21;7.10;99.90